Strona główna
METAR-TAF:

METAR-TAF

Lotnisko :

Baza lotnicza

Niederstetten, Niemcy

Szerokość geograficzna: 49-24N, Długość geograficzna: 009-58E, wysokość: 468 m

Aktualna obserwacja pogody

Raport powstał 1 godzina i 8 minut temu, godzina 04:20 UTC
Wiatr 8 kt od północno-północny wschód
Temperatura 13°C
Wilgotność 67%
Ciśnienie 1028 hPa
Widzialność 10 km lub więcej
Rozproszone chmury na wysokości 6000 ft
Przerywane chmury na wysokości 10000 ft

METAR: ETHN 280420Z 02008KT 9999 SCT060 BKN100 13/07 Q1028 BLU BLU

czas: 07:28 (05:28 UTC)

Prognoza

Raport powstał 1 godzina i 28 minut temu, godzina 04:00 UTC
Prognoza ważna od 28 godzina 05 UTC do 28 godzina 14 UTC
Wiatr 10 kt od północno-północny wschód w porywach dochodzący do 20 kt
Widzialność 10 km lub więcej
Rozproszone chmury na wysokości 6000 ft
Przerywane chmury na wysokości 11000 ft

TAF: ETHN 280400Z 2805/2814 02010G20KT 9999 NSW SCT060 BKN110

Obserwacja i prognoza pogody dla ponad 4000 lotnisk (raport METAR i TAF).

Dostępne stacje oznaczono żółtymi i czerwonymi punktami na mapie.

Najedź kursorem aby zobaczyć nazwę stacji.

Kliknij aby zobaczyć obserwacje i prognozy pogody.

Aby zmienić mapę: kliknij na zielony przycisk z czarnym krzyżykiem, aby powiększyć; na zielony przycisk z myślnikiem, aby pomniejszyć; na zielone strzałki, aby przejść do map sąsiednich.


METAR-TAF: